createdAt,value
2019-05-26T00:00:13.009Z,9.45
2019-05-26T00:02:41.393Z,9.65
2019-05-26T00:05:09.923Z,8.80
2019-05-26T00:07:38.331Z,9.65
2019-05-26T00:10:07.057Z,9.43
2019-05-26T00:12:35.427Z,9.20
2019-05-26T00:15:05.026Z,9.63
2019-05-26T00:17:33.480Z,9.00
2019-05-26T00:20:01.835Z,9.28
2019-05-26T00:22:30.220Z,8.80
2019-05-26T00:24:58.603Z,8.93
2019-05-26T00:27:26.992Z,9.25
2019-05-26T00:29:55.367Z,10.32
2019-05-26T00:32:23.755Z,9.63
2019-05-26T00:34:52.126Z,9.25
2019-05-26T00:37:20.447Z,10.18
2019-05-26T00:39:48.818Z,12.20
2019-05-26T00:42:17.225Z,12.82
2019-05-26T00:44:45.605Z,10.95
2019-05-26T00:47:14.019Z,12.00
2019-05-26T00:49:42.361Z,10.60
2019-05-26T00:52:10.669Z,11.63
2019-05-26T00:54:38.974Z,10.80
2019-05-26T00:57:07.368Z,10.53
2019-05-26T00:59:35.726Z,10.28
2019-05-26T01:02:04.051Z,9.93
2019-05-26T01:04:32.419Z,10.40
2019-05-26T01:07:00.799Z,11.95
2019-05-26T01:09:29.196Z,12.15
2019-05-26T01:11:57.564Z,13.20
2019-05-26T01:14:25.971Z,12.07
2019-05-26T01:16:55.908Z,13.03
2019-05-26T01:19:24.377Z,11.35
2019-05-26T01:21:52.741Z,15.45
2019-05-26T01:24:21.071Z,12.37
2019-05-26T01:26:49.451Z,14.63
2019-05-26T01:29:17.904Z,13.58
2019-05-26T01:31:46.278Z,13.32
2019-05-26T01:34:14.673Z,12.45
2019-05-26T01:36:43.043Z,12.33
2019-05-26T01:39:11.439Z,12.75
2019-05-26T01:41:39.819Z,12.78
2019-05-26T01:44:08.208Z,11.40
2019-05-26T01:46:36.575Z,10.80
2019-05-26T01:49:04.919Z,11.28
2019-05-26T01:51:33.299Z,11.65
2019-05-26T01:54:01.689Z,11.75
2019-05-26T01:56:30.063Z,10.82
2019-05-26T01:58:58.458Z,12.15
2019-05-26T02:01:26.844Z,11.33
2019-05-26T02:03:55.239Z,12.95
2019-05-26T02:06:23.610Z,12.45
2019-05-26T02:08:52.022Z,11.40
2019-05-26T02:11:20.387Z,13.48
2019-05-26T02:13:48.778Z,14.03
2019-05-26T02:16:17.155Z,11.48
2019-05-26T02:18:45.501Z,12.43
2019-05-26T02:21:14.948Z,11.08
2019-05-26T02:23:43.660Z,11.75
2019-05-26T02:26:12.049Z,11.33
2019-05-26T02:28:40.439Z,11.73
2019-05-26T02:31:08.811Z,10.98
2019-05-26T02:33:37.232Z,10.30
2019-05-26T02:36:05.605Z,11.15
2019-05-26T02:38:33.975Z,10.05
2019-05-26T02:41:02.366Z,10.10
2019-05-26T02:43:30.748Z,9.63
2019-05-26T02:45:59.177Z,11.18
2019-05-26T02:48:27.495Z,9.75
2019-05-26T02:50:55.894Z,9.18
2019-05-26T02:53:24.845Z,9.75
2019-05-26T02:55:53.362Z,9.50
2019-05-26T02:58:21.746Z,10.28
2019-05-26T03:00:50.136Z,9.58
2019-05-26T03:03:18.524Z,9.08
2019-05-26T03:05:46.971Z,8.95
2019-05-26T03:08:15.886Z,9.75
2019-05-26T03:10:44.645Z,9.00
2019-05-26T03:13:13.648Z,9.75
2019-05-26T03:15:43.907Z,9.50
2019-05-26T03:18:12.287Z,8.43
2019-05-26T03:20:40.866Z,8.73
2019-05-26T03:23:09.300Z,8.40
2019-05-26T03:25:37.755Z,9.95
2019-05-26T03:28:09.604Z,8.70
2019-05-26T03:30:38.061Z,7.70
2019-05-26T03:33:06.384Z,8.18
2019-05-26T03:35:34.766Z,9.50
2019-05-26T03:38:03.134Z,9.63
2019-05-26T03:40:31.555Z,9.10
2019-05-26T03:42:59.905Z,9.10
2019-05-26T03:45:40.678Z,8.55
2019-05-26T03:48:09.010Z,8.25
2019-05-26T03:50:37.395Z,9.40
2019-05-26T03:53:05.774Z,7.92
2019-05-26T03:55:34.176Z,8.63
2019-05-26T03:58:02.538Z,8.88
2019-05-26T04:00:30.925Z,7.95
2019-05-26T04:02:59.306Z,9.35
2019-05-26T04:05:47.127Z,8.70
2019-05-26T04:08:15.496Z,8.23
2019-05-26T04:10:43.901Z,7.87
2019-05-26T04:13:12.264Z,8.63
2019-05-26T04:15:40.656Z,7.90
2019-05-26T04:18:09.038Z,7.35
2019-05-26T04:20:37.429Z,7.15
2019-05-26T04:23:05.782Z,7.62
2019-05-26T04:25:34.190Z,7.87
2019-05-26T04:28:02.556Z,7.70
2019-05-26T04:30:30.924Z,6.45
2019-05-26T04:32:59.312Z,6.78
2019-05-26T04:35:27.695Z,7.45
2019-05-26T04:37:56.085Z,6.70
2019-05-26T04:40:26.930Z,7.03
2019-05-26T04:42:54.655Z,7.95
2019-05-26T04:45:23.026Z,7.62
2019-05-26T04:47:51.412Z,8.30
2019-05-26T04:50:19.807Z,10.70
2019-05-26T04:53:05.351Z,9.55
2019-05-26T04:55:18.551Z,9.00
2019-05-26T04:57:46.950Z,13.62
2019-05-26T05:00:15.311Z,9.73
2019-05-26T05:02:43.707Z,8.78
2019-05-26T05:05:12.082Z,8.83
2019-05-26T05:07:40.478Z,8.70
2019-05-26T05:10:08.914Z,9.95
2019-05-26T05:12:37.305Z,10.15
2019-05-26T05:15:07.002Z,8.78
2019-05-26T05:17:35.427Z,10.23
2019-05-26T05:20:06.045Z,26.55
2019-05-26T05:22:34.468Z,8.98
2019-05-26T05:25:03.118Z,9.35
2019-05-26T05:27:31.522Z,10.72
2019-05-26T05:29:59.922Z,9.78
2019-05-26T05:32:28.336Z,16.57
2019-05-26T05:34:58.356Z,10.10
2019-05-26T05:37:26.776Z,28.05
2019-05-26T05:39:55.187Z,12.28
2019-05-26T05:42:23.592Z,13.15
2019-05-26T05:44:51.985Z,11.33
2019-05-26T05:47:20.402Z,11.50
2019-05-26T05:49:48.789Z,12.25
2019-05-26T05:52:17.201Z,11.33
2019-05-26T05:54:45.663Z,11.78
2019-05-26T05:57:14.105Z,11.43
2019-05-26T05:59:42.495Z,12.88
2019-05-26T06:02:10.910Z,12.45
2019-05-26T06:04:39.286Z,11.60
2019-05-26T06:07:07.714Z,11.90
2019-05-26T06:09:36.127Z,12.47
2019-05-26T06:12:04.802Z,12.10
2019-05-26T06:14:33.292Z,11.83
2019-05-26T06:17:01.729Z,11.03
2019-05-26T06:19:30.138Z,11.88
2019-05-26T06:21:58.520Z,12.10
2019-05-26T06:24:26.940Z,11.12
2019-05-26T06:26:55.306Z,11.80
2019-05-26T06:29:23.768Z,11.75
2019-05-26T06:31:52.223Z,11.60
2019-05-26T06:34:20.681Z,10.88
2019-05-26T06:36:49.089Z,11.08
2019-05-26T06:39:17.515Z,10.95
2019-05-26T06:41:45.973Z,10.28
2019-05-26T06:44:14.422Z,10.75
2019-05-26T06:46:42.870Z,10.72
2019-05-26T06:49:11.297Z,10.00
2019-05-26T06:51:43.324Z,10.30
2019-05-26T06:54:11.947Z,10.08
2019-05-26T06:56:40.375Z,9.53
2019-05-26T06:59:10.830Z,10.28
2019-05-26T07:01:39.250Z,10.50
2019-05-26T07:04:07.670Z,9.20
2019-05-26T07:06:36.055Z,11.78
2019-05-26T07:09:06.308Z,14.98
2019-05-26T07:11:49.355Z,7.37
2019-05-26T07:14:04.825Z,11.33
2019-05-26T07:16:38.047Z,7.28
2019-05-26T07:19:03.254Z,8.53
2019-05-26T07:21:31.736Z,5.05
2019-05-26T07:24:00.111Z,5.78
2019-05-26T07:26:28.508Z,6.35
2019-05-26T07:28:56.918Z,7.35
2019-05-26T07:31:25.293Z,6.17
2019-05-26T07:33:53.802Z,5.70
2019-05-26T07:36:22.207Z,5.60
2019-05-26T07:38:50.662Z,5.60
2019-05-26T07:41:19.094Z,6.10
2019-05-26T07:43:47.498Z,6.00
2019-05-26T07:46:15.984Z,5.15
2019-05-26T07:48:44.491Z,6.35
2019-05-26T07:51:12.993Z,6.00
2019-05-26T07:53:41.391Z,6.85
2019-05-26T07:56:09.806Z,7.83
2019-05-26T07:58:38.181Z,7.53
2019-05-26T08:01:06.649Z,6.15
2019-05-26T08:03:35.064Z,5.95
2019-05-26T08:06:03.478Z,8.53
2019-05-26T08:08:31.869Z,6.83
2019-05-26T08:11:01.915Z,7.40
2019-05-26T08:13:30.300Z,6.67
2019-05-26T08:15:58.716Z,6.25
2019-05-26T08:18:27.125Z,6.25
2019-05-26T08:20:55.525Z,7.28
2019-05-26T08:23:23.908Z,5.80
2019-05-26T08:25:52.442Z,7.62
2019-05-26T08:28:21.186Z,8.08
2019-05-26T08:30:49.590Z,6.45
2019-05-26T08:33:17.982Z,7.72
2019-05-26T08:35:46.380Z,8.23
2019-05-26T08:38:14.765Z,7.20
2019-05-26T08:40:43.164Z,6.03
2019-05-26T08:43:11.558Z,6.58
2019-05-26T08:45:39.956Z,6.95
2019-05-26T08:48:08.348Z,6.58
2019-05-26T08:50:36.759Z,6.60
2019-05-26T08:53:05.306Z,6.30
2019-05-26T08:55:33.710Z,6.95
2019-05-26T08:58:02.127Z,7.03
2019-05-26T09:00:30.526Z,7.05
2019-05-26T09:02:58.901Z,7.58
2019-05-26T09:05:27.302Z,8.28
2019-05-26T09:07:55.690Z,8.85
2019-05-26T09:10:24.101Z,7.03
2019-05-26T09:13:00.782Z,7.75
2019-05-26T09:15:22.553Z,6.87
2019-05-26T09:17:50.921Z,7.40
2019-05-26T09:20:19.333Z,8.58
2019-05-26T09:22:47.711Z,7.62
2019-05-26T09:25:16.117Z,7.72
2019-05-26T09:27:44.503Z,8.40
2019-05-26T09:30:12.927Z,7.37
2019-05-26T09:32:41.360Z,7.22
2019-05-26T09:35:09.801Z,8.55
2019-05-26T09:37:38.192Z,7.58
2019-05-26T09:40:09.275Z,7.25
2019-05-26T09:42:37.704Z,6.80
2019-05-26T09:45:09.406Z,7.00
2019-05-26T09:47:37.804Z,6.20
2019-05-26T09:50:06.511Z,7.15
2019-05-26T09:52:35.044Z,7.92
2019-05-26T09:55:05.660Z,6.58
2019-05-26T09:57:34.134Z,7.33
2019-05-26T10:00:03.211Z,6.65
2019-05-26T10:02:31.796Z,7.30
2019-05-26T10:05:00.234Z,10.43
2019-05-26T10:07:29.004Z,6.95
2019-05-26T10:09:57.621Z,6.70
2019-05-26T10:12:26.039Z,7.55
2019-05-26T10:14:54.485Z,7.12
2019-05-26T10:17:23.427Z,7.22
2019-05-26T10:19:52.090Z,7.12
2019-05-26T10:22:20.673Z,6.78
2019-05-26T10:24:49.053Z,6.72
2019-05-26T10:27:17.473Z,7.30
2019-05-26T10:29:47.649Z,7.42
2019-05-26T10:32:16.092Z,6.33
2019-05-26T10:34:44.545Z,4.95
2019-05-26T10:37:13.741Z,6.15
2019-05-26T10:39:45.041Z,6.10
2019-05-26T10:42:12.281Z,8.08
2019-05-26T10:44:40.661Z,6.97
2019-05-26T10:47:09.060Z,6.80
2019-05-26T10:49:37.448Z,5.60
2019-05-26T10:52:05.862Z,6.67
2019-05-26T10:54:34.269Z,5.50
2019-05-26T10:57:02.717Z,5.50
2019-05-26T10:59:31.345Z,5.03
2019-05-26T11:01:59.940Z,4.90
2019-05-26T11:04:28.432Z,4.95
2019-05-26T11:06:56.913Z,4.60
2019-05-26T11:09:25.317Z,8.80
2019-05-26T11:11:53.732Z,4.50
2019-05-26T11:14:22.110Z,4.65
2019-05-26T11:16:50.518Z,3.47
2019-05-26T11:19:18.884Z,4.33
2019-05-26T11:21:47.277Z,4.05
2019-05-26T11:24:15.670Z,4.03
2019-05-26T11:26:44.070Z,3.67
2019-05-26T11:29:12.848Z,3.55
2019-05-26T11:31:41.214Z,3.92
2019-05-26T11:34:09.616Z,2.95
2019-05-26T11:36:37.982Z,3.08
2019-05-26T11:39:07.282Z,4.55
2019-05-26T11:41:35.778Z,4.47
2019-05-26T11:44:17.099Z,3.00
2019-05-26T11:46:35.574Z,3.22
2019-05-26T11:49:03.967Z,3.08
2019-05-26T11:51:32.366Z,2.65
2019-05-26T11:54:00.752Z,3.20
2019-05-26T11:56:29.121Z,2.75
2019-05-26T11:58:57.524Z,4.55
2019-05-26T12:01:26.244Z,3.22
2019-05-26T12:03:54.639Z,3.33
2019-05-26T12:06:23.024Z,2.90
2019-05-26T12:08:51.399Z,4.22
2019-05-26T12:11:19.774Z,2.87
2019-05-26T12:13:48.172Z,3.15
2019-05-26T12:16:16.535Z,3.25
2019-05-26T12:18:44.929Z,3.17
2019-05-26T12:21:13.293Z,3.10
2019-05-26T12:23:41.680Z,2.98
2019-05-26T12:26:10.063Z,3.30
2019-05-26T12:28:38.440Z,4.58
2019-05-26T12:31:06.851Z,2.70
2019-05-26T12:33:35.235Z,4.45
2019-05-26T12:36:03.608Z,3.22
2019-05-26T12:38:32.006Z,2.60
2019-05-26T12:41:00.367Z,2.30
2019-05-26T12:43:28.756Z,2.60
2019-05-26T12:45:57.126Z,3.45
2019-05-26T12:48:25.540Z,2.47
2019-05-26T12:50:53.913Z,2.33
2019-05-26T12:53:22.312Z,2.40
2019-05-26T12:55:50.674Z,2.50
2019-05-26T12:58:19.068Z,2.33
2019-05-26T13:00:50.796Z,1.80
2019-05-26T13:03:17.469Z,2.05
2019-05-26T13:05:45.849Z,3.27
2019-05-26T13:08:14.240Z,2.20
2019-05-26T13:10:42.615Z,1.80
2019-05-26T13:13:11.009Z,2.52
2019-05-26T13:15:39.371Z,2.87
2019-05-26T13:18:07.771Z,1.62
2019-05-26T13:20:36.137Z,1.70
2019-05-26T13:23:04.511Z,2.33
2019-05-26T13:25:32.907Z,1.50
2019-05-26T13:28:01.282Z,1.67
2019-05-26T13:30:29.666Z,1.57
2019-05-26T13:32:58.035Z,1.72
2019-05-26T13:35:26.459Z,1.55
2019-05-26T13:37:54.834Z,1.80
2019-05-26T13:40:23.218Z,2.00
2019-05-26T13:42:51.621Z,2.15
2019-05-26T13:45:23.011Z,1.90
2019-05-26T13:47:50.579Z,1.82
2019-05-26T13:50:19.031Z,1.30
2019-05-26T13:52:47.402Z,1.40
2019-05-26T13:55:16.868Z,3.05
2019-05-26T13:57:45.238Z,2.75
2019-05-26T14:00:15.252Z,1.50
2019-05-26T14:02:43.647Z,1.95
2019-05-26T14:05:12.039Z,2.72
2019-05-26T14:07:40.411Z,3.90
2019-05-26T14:10:10.171Z,4.37
2019-05-26T14:12:38.540Z,2.62
2019-05-26T14:15:07.639Z,3.20
2019-05-26T14:17:36.103Z,2.77
2019-05-26T14:20:06.445Z,1.80
2019-05-26T14:22:34.816Z,1.85
2019-05-26T14:25:04.241Z,2.20
2019-05-26T14:27:32.632Z,1.40
2019-05-26T14:30:01.012Z,1.32
2019-05-26T14:32:29.579Z,1.57
2019-05-26T14:34:58.369Z,1.55
2019-05-26T14:37:26.849Z,1.80
2019-05-26T14:39:55.254Z,1.25
2019-05-26T14:42:23.623Z,1.37
2019-05-26T14:44:52.236Z,1.40
2019-05-26T14:47:20.743Z,2.85
2019-05-26T14:49:49.152Z,1.72
2019-05-26T14:52:17.495Z,1.87
2019-05-26T14:54:45.949Z,1.35
2019-05-26T14:57:14.336Z,1.30
2019-05-26T14:59:42.731Z,2.12
2019-05-26T15:02:11.442Z,2.12
2019-05-26T15:04:39.907Z,1.57
2019-05-26T15:07:08.599Z,2.35
2019-05-26T15:09:37.025Z,1.37
2019-05-26T15:12:05.388Z,1.95
2019-05-26T15:14:34.035Z,2.15
2019-05-26T15:17:02.354Z,1.40
2019-05-26T15:19:30.826Z,1.52
2019-05-26T15:21:59.220Z,1.87
2019-05-26T15:24:27.701Z,2.10
2019-05-26T15:26:56.247Z,2.65
2019-05-26T15:29:24.638Z,1.95
2019-05-26T15:31:53.018Z,1.52
2019-05-26T15:34:21.421Z,1.52
2019-05-26T15:36:49.823Z,1.87
2019-05-26T15:39:18.178Z,1.82
2019-05-26T15:41:46.637Z,1.52
2019-05-26T15:44:15.067Z,1.30
2019-05-26T15:46:43.586Z,1.30
2019-05-26T15:49:11.955Z,1.42
2019-05-26T15:51:40.341Z,1.37
2019-05-26T15:54:11.772Z,1.00
2019-05-26T15:56:40.262Z,1.20
2019-05-26T15:59:08.640Z,1.72
2019-05-26T16:01:37.039Z,1.20
2019-05-26T16:04:05.432Z,2.62
2019-05-26T16:06:33.892Z,2.17
2019-05-26T16:09:02.289Z,2.17
2019-05-26T16:11:30.668Z,1.37
2019-05-26T16:13:59.067Z,1.52
2019-05-26T16:16:40.148Z,1.30
2019-05-26T16:18:57.463Z,1.12
2019-05-26T16:21:28.287Z,1.77
2019-05-26T16:23:55.883Z,1.95
2019-05-26T16:26:24.274Z,1.32
2019-05-26T16:28:52.654Z,1.20
2019-05-26T16:31:21.030Z,1.30
2019-05-26T16:33:49.404Z,1.40
2019-05-26T16:36:21.109Z,1.30
2019-05-26T16:38:47.814Z,2.05
2019-05-26T16:41:16.219Z,1.60
2019-05-26T16:43:44.622Z,1.27
2019-05-26T16:46:13.015Z,1.62
2019-05-26T16:48:41.389Z,2.37
2019-05-26T16:51:09.791Z,1.30
2019-05-26T16:53:38.239Z,4.15
2019-05-26T16:56:06.626Z,2.83
2019-05-26T16:58:35.005Z,1.90
2019-05-26T17:01:03.377Z,1.32
2019-05-26T17:03:31.765Z,1.22
2019-05-26T17:06:07.986Z,4.60
2019-05-26T17:08:30.175Z,1.30
2019-05-26T17:10:58.560Z,1.85
2019-05-26T17:13:27.078Z,1.25
2019-05-26T17:15:55.435Z,2.42
2019-05-26T17:18:23.826Z,2.05
2019-05-26T17:20:52.216Z,1.67
2019-05-26T17:23:20.662Z,1.20
2019-05-26T17:25:49.242Z,1.45
2019-05-26T17:28:17.680Z,2.55
2019-05-26T17:30:45.995Z,1.30
2019-05-26T17:33:14.386Z,1.37
2019-05-26T17:35:42.691Z,3.12
2019-05-26T17:38:11.179Z,3.58
2019-05-26T17:40:39.553Z,1.45
2019-05-26T17:43:07.938Z,2.37
2019-05-26T17:45:36.316Z,4.47
2019-05-26T17:48:04.770Z,4.12
2019-05-26T17:50:33.192Z,2.58
2019-05-26T17:53:01.532Z,2.47
2019-05-26T17:55:29.898Z,3.77
2019-05-26T17:57:58.280Z,1.95
2019-05-26T18:00:26.660Z,2.90
2019-05-26T18:02:55.046Z,2.58
2019-05-26T18:05:23.407Z,1.12
2019-05-26T18:07:51.806Z,1.10
2019-05-26T18:10:20.173Z,1.62
2019-05-26T18:12:48.577Z,1.67
2019-05-26T18:15:16.944Z,1.82
2019-05-26T18:17:47.521Z,1.40
2019-05-26T18:20:15.944Z,1.40
2019-05-26T18:22:44.386Z,1.42
2019-05-26T18:25:12.723Z,2.12
2019-05-26T18:27:41.132Z,1.80
2019-05-26T18:30:10.588Z,1.35
2019-05-26T18:32:38.981Z,2.85
2019-05-26T18:35:07.438Z,1.37
2019-05-26T18:37:35.842Z,1.75
2019-05-26T18:40:05.746Z,2.62
2019-05-26T18:42:34.162Z,1.72
2019-05-26T18:45:02.530Z,1.40
2019-05-26T18:47:30.903Z,3.65
2019-05-26T18:49:59.362Z,7.30
2019-05-26T18:52:27.723Z,6.20
2019-05-26T18:54:56.114Z,3.70
2019-05-26T18:57:24.470Z,5.20
2019-05-26T18:59:52.902Z,9.60
2019-05-26T19:02:21.274Z,12.13
2019-05-26T19:04:49.655Z,7.37
2019-05-26T19:07:18.034Z,5.12
2019-05-26T19:09:46.428Z,3.20
2019-05-26T19:12:14.789Z,3.27
2019-05-26T19:14:43.205Z,2.22
2019-05-26T19:17:11.568Z,2.62
2019-05-26T19:19:39.966Z,3.25
2019-05-26T19:22:08.332Z,1.70
2019-05-26T19:24:36.724Z,1.67
2019-05-26T19:27:05.088Z,1.98
2019-05-26T19:29:33.479Z,2.10
2019-05-26T19:32:01.841Z,3.55
2019-05-26T19:34:30.239Z,2.10
2019-05-26T19:36:58.605Z,1.67
2019-05-26T19:39:26.996Z,2.70
2019-05-26T19:41:55.356Z,2.33
2019-05-26T19:44:23.767Z,3.27
2019-05-26T19:46:53.150Z,2.15
2019-05-26T19:49:21.632Z,2.47
2019-05-26T19:51:50.006Z,2.45
2019-05-26T19:54:18.403Z,2.52
2019-05-26T19:56:46.787Z,2.20
2019-05-26T19:59:15.176Z,2.30
2019-05-26T20:01:43.543Z,2.20
2019-05-26T20:04:11.960Z,2.15
2019-05-26T20:06:43.719Z,4.08
2019-05-26T20:09:10.371Z,3.33
2019-05-26T20:11:38.770Z,3.00
2019-05-26T20:14:07.148Z,3.35
2019-05-26T20:16:35.517Z,4.90
2019-05-26T20:19:04.479Z,2.35
2019-05-26T20:21:32.774Z,3.95
2019-05-26T20:24:01.159Z,3.70
2019-05-26T20:26:29.533Z,2.20
2019-05-26T20:28:57.939Z,2.05
2019-05-26T20:31:26.329Z,2.47
2019-05-26T20:33:54.714Z,2.37
2019-05-26T20:36:23.091Z,3.77
2019-05-26T20:38:51.487Z,3.85
2019-05-26T20:41:19.858Z,3.20
2019-05-26T20:43:48.231Z,3.12
2019-05-26T20:46:16.631Z,5.30
2019-05-26T20:48:44.990Z,3.05
2019-05-26T20:51:13.379Z,2.80
2019-05-26T20:53:41.757Z,3.25
2019-05-26T20:56:10.314Z,4.12
2019-05-26T20:58:38.690Z,4.08
2019-05-26T21:01:07.077Z,2.72
2019-05-26T21:03:35.445Z,4.97
2019-05-26T21:06:03.906Z,2.95
2019-05-26T21:08:32.324Z,2.67
2019-05-26T21:11:00.669Z,2.47
2019-05-26T21:13:29.037Z,3.85
2019-05-26T21:15:57.424Z,2.42
2019-05-26T21:18:25.798Z,3.62
2019-05-26T21:20:54.191Z,2.80
2019-05-26T21:23:22.940Z,4.05
2019-05-26T21:25:51.368Z,2.87
2019-05-26T21:28:19.721Z,3.25
2019-05-26T21:30:48.105Z,3.10
2019-05-26T21:33:16.479Z,2.80
2019-05-26T21:35:44.861Z,4.45
2019-05-26T21:38:13.225Z,3.42
2019-05-26T21:40:41.637Z,3.42
2019-05-26T21:43:10.006Z,3.27
2019-05-26T21:45:38.391Z,4.05
2019-05-26T21:48:06.782Z,3.10
2019-05-26T21:50:35.166Z,7.17
2019-05-26T21:53:03.550Z,3.30
2019-05-26T21:55:31.950Z,4.28
2019-05-26T21:58:00.348Z,2.83
2019-05-26T22:00:30.433Z,4.97
2019-05-26T22:02:58.801Z,4.22
2019-05-26T22:05:27.236Z,4.17
2019-05-26T22:07:55.617Z,3.30
2019-05-26T22:10:24.017Z,3.37
2019-05-26T22:12:52.390Z,3.70
2019-05-26T22:15:20.789Z,3.05
2019-05-26T22:17:49.168Z,3.40
2019-05-26T22:20:17.625Z,4.10
2019-05-26T22:22:46.209Z,2.77
2019-05-26T22:25:14.598Z,4.40
2019-05-26T22:27:43.213Z,2.83
2019-05-26T22:30:11.597Z,3.20
2019-05-26T22:32:40.001Z,3.80
2019-05-26T22:35:08.417Z,5.17
2019-05-26T22:37:36.901Z,3.05
2019-05-26T22:40:06.853Z,3.12
2019-05-26T22:42:35.741Z,3.37
2019-05-26T22:45:06.278Z,5.08
2019-05-26T22:47:34.686Z,4.40
2019-05-26T22:50:04.873Z,3.60
2019-05-26T22:52:33.627Z,3.37
2019-05-26T22:55:02.052Z,3.40
2019-05-26T22:57:30.580Z,5.67
2019-05-26T22:59:58.968Z,3.52
2019-05-26T23:02:27.450Z,2.87
2019-05-26T23:04:55.797Z,3.80
2019-05-26T23:07:24.217Z,3.95
2019-05-26T23:09:52.649Z,4.05
2019-05-26T23:12:21.047Z,5.37
2019-05-26T23:14:49.415Z,3.30
2019-05-26T23:17:17.825Z,5.30
2019-05-26T23:19:46.206Z,3.72
2019-05-26T23:22:14.768Z,4.55
2019-05-26T23:24:43.146Z,5.12
2019-05-26T23:27:11.631Z,3.30
2019-05-26T23:29:40.011Z,4.12
2019-05-26T23:32:08.400Z,4.00
2019-05-26T23:34:36.869Z,4.47
2019-05-26T23:37:05.444Z,4.10
2019-05-26T23:39:33.822Z,3.58
2019-05-26T23:42:02.199Z,3.12
2019-05-26T23:44:30.612Z,5.22
2019-05-26T23:46:58.997Z,3.58
2019-05-26T23:49:27.392Z,3.20
2019-05-26T23:51:55.783Z,3.58
2019-05-26T23:54:24.213Z,3.98
2019-05-26T23:56:52.571Z,3.50
2019-05-26T23:59:20.993Z,3.62
